Time;durP1;ratioP1;P1;durP2;ratioP2;P2;SDS_P1;SDS_P2;PMS_P1;PMS_P2;Temp;Humidity;BMP_temperature;BMP_pressure;BME280_temperature;BME280_humidity;BME280_pressure;Samples;Min_cycle;Max_cycle;Signal;HPM_P1;HPM_P2
2021/12/27 00:01:27;;;;;;;;;;;20.80;31.30;;;;;;487418;243;2171;-76
2021/12/27 00:03:28;;;;;;;;;;;21.10;31.50;;;;;;487391;243;1152;-76
2021/12/27 00:05:30;;;;;;;;;;;20.80;31.60;;;;;;487403;243;1224;-76
2021/12/27 00:07:31;;;;;;;;;;;20.90;31.50;;;;;;487353;243;1165;-76
2021/12/27 00:09:33;;;;;;;;;;;20.80;31.60;;;;;;487450;243;963;-76
2021/12/27 00:11:34;;;;;;;;;;;21.00;31.20;;;;;;487489;243;1261;-76
2021/12/27 00:13:35;;;;;;;;;;;21.10;31.20;;;;;;487413;243;1060;-76
2021/12/27 00:15:37;;;;;;;;;;;20.90;31.30;;;;;;487413;243;969;-76
2021/12/27 00:17:39;;;;;;;;;;;21.10;31.10;;;;;;487309;243;1233;-76
2021/12/27 00:19:39;;;;;;;;;;;21.20;31.40;;;;;;487345;243;1452;-76
2021/12/27 00:21:41;;;;;;;;;;;20.90;31.20;;;;;;487423;243;2174;-76
2021/12/27 00:23:42;;;;;;;;;;;21.30;30.80;;;;;;487445;243;1103;-76
2021/12/27 00:25:43;;;;;;;;;;;21.00;31.30;;;;;;487430;243;1067;-76
2021/12/27 00:27:45;;;;;;;;;;;20.70;31.80;;;;;;487431;243;1185;-76
2021/12/27 00:29:46;;;;;;;;;;;21.10;31.20;;;;;;487433;243;1115;-76
2021/12/27 00:31:47;;;;;;;;;;;21.10;31.20;;;;;;487386;243;1235;-76
2021/12/27 00:33:49;;;;;;;;;;;21.10;31.40;;;;;;487517;243;1144;-76
2021/12/27 00:35:50;;;;;;;;;;;21.40;31.00;;;;;;487386;243;934;-76
2021/12/27 00:37:51;;;;;;;;;;;21.30;31.10;;;;;;487549;243;1131;-76
2021/12/27 00:39:53;;;;;;;;;;;21.10;31.20;;;;;;487376;243;2178;-76
2021/12/27 00:41:54;;;;;;;;;;;21.10;31.10;;;;;;487244;243;1180;-76
2021/12/27 00:43:55;;;;;;;;;;;21.00;31.30;;;;;;487396;243;1195;-76
2021/12/27 00:45:57;;;;;;;;;;;21.20;30.90;;;;;;487377;243;1092;-76
2021/12/27 00:47:59;;;;;;;;;;;21.40;31.10;;;;;;487339;243;1153;-76
2021/12/27 00:49:59;;;;;;;;;;;21.20;31.00;;;;;;487458;243;1357;-76
2021/12/27 00:52:01;;;;;;;;;;;21.30;30.90;;;;;;487327;243;1210;-76
2021/12/27 00:54:02;;;;;;;;;;;21.10;31.30;;;;;;487442;243;1166;-76
2021/12/27 00:56:04;;;;;;;;;;;21.10;31.40;;;;;;487293;243;1024;-76
2021/12/27 00:58:05;;;;;;;;;;;21.30;30.80;;;;;;487433;244;1122;-76
2021/12/27 01:00:06;;;;;;;;;;;21.30;30.80;;;;;;487423;243;2186;-76
2021/12/27 01:02:08;;;;;;;;;;;21.30;31.10;;;;;;487354;243;1056;-77
2021/12/27 01:04:09;;;;;;;;;;;21.40;31.00;;;;;;487460;243;1153;-76
2021/12/27 01:06:10;;;;;;;;;;;21.40;30.80;;;;;;487326;243;1133;-76
2021/12/27 01:08:11;;;;;;;;;;;21.60;30.60;;;;;;487478;243;1093;-76
2021/12/27 01:10:33;;;;;;;;;;;21.40;30.90;;;;;;487431;243;951;-76
2021/12/27 01:12:33;;;;;;;;;;;21.40;30.80;;;;;;486479;244;1389;-76
2021/12/27 01:14:40;;;;;;;;;;;21.40;30.90;;;;;;487321;244;1500;-76
2021/12/27 01:16:34;;;;;;;;;;;21.70;30.70;;;;;;486735;244;1449;-76
2021/12/27 01:18:35;;;;;;;;;;;21.40;30.80;;;;;;487349;243;1162;-76
2021/12/27 01:20:37;;;;;;;;;;;21.60;30.70;;;;;;487512;243;2127;-76
2021/12/27 01:22:38;;;;;;;;;;;22.00;30.20;;;;;;487384;243;1329;-76
2021/12/27 01:24:39;;;;;;;;;;;21.80;30.30;;;;;;487420;243;1291;-76
2021/12/27 01:26:41;;;;;;;;;;;21.30;30.80;;;;;;487359;240;1226;-76
2021/12/27 01:28:42;;;;;;;;;;;21.40;30.90;;;;;;487389;243;1111;-76
2021/12/27 01:30:47;;;;;;;;;;;21.30;31.00;;;;;;487453;243;1287;-76
2021/12/27 01:32:50;;;;;;;;;;;21.50;30.70;;;;;;487348;244;1362;-76
2021/12/27 01:34:48;;;;;;;;;;;21.20;30.80;;;;;;487288;244;1932;-76
2021/12/27 01:36:50;;;;;;;;;;;21.50;30.80;;;;;;487269;240;1213;-76
2021/12/27 01:38:51;;;;;;;;;;;21.60;30.70;;;;;;480500;247;954;-76
2021/12/27 01:40:53;;;;;;;;;;;21.70;30.50;;;;;;485061;244;2191;-76
2021/12/27 01:42:54;;;;;;;;;;;21.40;30.60;;;;;;487353;243;1101;-76
2021/12/27 01:44:55;;;;;;;;;;;22.00;30.00;;;;;;487403;243;1124;-76
2021/12/27 01:46:56;;;;;;;;;;;21.70;30.30;;;;;;487344;243;1191;-76
2021/12/27 01:48:59;;;;;;;;;;;21.80;30.40;;;;;;487441;243;1428;-76
2021/12/27 01:50:59;;;;;;;;;;;21.40;30.50;;;;;;487353;243;1413;-76
2021/12/27 01:53:00;;;;;;;;;;;21.60;30.60;;;;;;487504;244;1399;-76
2021/12/27 01:55:02;;;;;;;;;;;21.30;30.80;;;;;;487477;243;1130;-76
2021/12/27 01:57:03;;;;;;;;;;;21.50;30.70;;;;;;487457;243;1152;-76
2021/12/27 01:59:05;;;;;;;;;;;21.40;30.60;;;;;;487395;243;1116;-76
2021/12/27 02:01:07;;;;;;;;;;;21.50;30.60;;;;;;487337;240;2203;-76
2021/12/27 02:03:08;;;;;;;;;;;21.40;30.80;;;;;;487345;243;1064;-76
2021/12/27 02:05:09;;;;;;;;;;;21.60;30.40;;;;;;487455;243;1168;-76
2021/12/27 02:07:11;;;;;;;;;;;21.40;30.70;;;;;;487439;243;1168;-76
2021/12/27 02:09:12;;;;;;;;;;;21.50;30.40;;;;;;487425;243;1109;-76
2021/12/27 02:11:13;;;;;;;;;;;22.00;30.20;;;;;;487417;240;1212;-76
2021/12/27 02:13:15;;;;;;;;;;;21.90;30.00;;;;;;487417;243;1196;-76
2021/12/27 02:15:16;;;;;;;;;;;22.00;30.00;;;;;;487449;243;996;-76
2021/12/27 02:17:17;;;;;;;;;;;21.80;30.10;;;;;;487382;243;1119;-76
2021/12/27 02:19:19;;;;;;;;;;;21.90;30.20;;;;;;487405;243;1196;-76
2021/12/27 02:21:20;;;;;;;;;;;21.80;30.20;;;;;;487328;243;2201;-76
2021/12/27 02:23:22;;;;;;;;;;;21.60;30.40;;;;;;487393;243;1107;-76
2021/12/27 02:25:23;;;;;;;;;;;21.80;30.20;;;;;;487355;245;1410;-76
2021/12/27 02:27:24;;;;;;;;;;;21.60;30.50;;;;;;487443;243;1177;-76
2021/12/27 02:29:25;;;;;;;;;;;21.60;30.40;;;;;;487397;243;921;-76
2021/12/27 02:31:27;;;;;;;;;;;21.80;30.40;;;;;;487379;243;1172;-76
2021/12/27 02:33:28;;;;;;;;;;;21.70;30.20;;;;;;487399;243;954;-76
2021/12/27 02:35:30;;;;;;;;;;;21.80;30.30;;;;;;487394;243;1119;-76
2021/12/27 02:37:31;;;;;;;;;;;21.40;30.40;;;;;;487289;243;1125;-76
2021/12/27 02:39:32;;;;;;;;;;;21.50;30.80;;;;;;487351;243;1085;-76
2021/12/27 02:41:34;;;;;;;;;;;21.60;30.40;;;;;;487364;243;2119;-76
2021/12/27 02:43:35;;;;;;;;;;;21.30;30.90;;;;;;487366;243;961;-76
2021/12/27 02:45:36;;;;;;;;;;;21.60;30.40;;;;;;487514;243;1217;-76
2021/12/27 02:47:38;;;;;;;;;;;21.90;30.10;;;;;;487367;243;1113;-76
2021/12/27 02:49:39;;;;;;;;;;;22.00;30.10;;;;;;487460;243;1201;-76
2021/12/27 02:51:40;;;;;;;;;;;21.80;30.20;;;;;;487417;243;1069;-76
2021/12/27 02:53:44;;;;;;;;;;;21.70;30.60;;;;;;487419;243;948;-76
2021/12/27 02:55:43;;;;;;;;;;;21.50;30.40;;;;;;487280;244;1498;-76
2021/12/27 02:57:44;;;;;;;;;;;21.60;30.40;;;;;;487367;243;1117;-76
2021/12/27 02:59:46;;;;;;;;;;;21.40;30.80;;;;;;487433;243;1035;-76
2021/12/27 03:01:47;;;;;;;;;;;21.60;30.60;;;;;;487359;243;2127;-76
2021/12/27 03:03:48;;;;;;;;;;;21.40;30.80;;;;;;487429;243;1133;-76
2021/12/27 03:05:50;;;;;;;;;;;21.30;31.00;;;;;;487398;243;1332;-76
2021/12/27 03:07:51;;;;;;;;;;;21.30;31.00;;;;;;487480;243;1135;-76
2021/12/27 03:09:52;;;;;;;;;;;21.60;30.60;;;;;;487457;243;927;-76
2021/12/27 03:11:54;;;;;;;;;;;21.60;30.60;;;;;;487392;243;1319;-76
2021/12/27 03:13:55;;;;;;;;;;;21.70;30.50;;;;;;487417;243;1146;-76
2021/12/27 03:15:56;;;;;;;;;;;21.40;30.80;;;;;;487376;243;1302;-76
2021/12/27 03:17:58;;;;;;;;;;;21.60;30.50;;;;;;487508;243;1223;-76
2021/12/27 03:19:59;;;;;;;;;;;21.70;30.60;;;;;;487424;243;1181;-76
2021/12/27 03:22:00;;;;;;;;;;;21.50;30.60;;;;;;487338;243;2218;-76
2021/12/27 03:24:02;;;;;;;;;;;21.90;30.20;;;;;;487434;243;1305;-76
2021/12/27 03:26:03;;;;;;;;;;;21.50;30.40;;;;;;487445;243;1045;-76
2021/12/27 03:28:04;;;;;;;;;;;21.30;30.80;;;;;;487417;243;953;-76
2021/12/27 03:30:06;;;;;;;;;;;21.20;31.30;;;;;;487469;243;977;-76
2021/12/27 03:32:07;;;;;;;;;;;21.40;30.70;;;;;;487369;243;1291;-76
2021/12/27 03:34:08;;;;;;;;;;;21.60;30.60;;;;;;487422;243;1002;-76
2021/12/27 03:36:10;;;;;;;;;;;21.40;30.80;;;;;;487421;243;1195;-76
2021/12/27 03:38:11;;;;;;;;;;;21.60;30.80;;;;;;487410;243;923;-76
2021/12/27 03:40:12;;;;;;;;;;;21.50;30.80;;;;;;487550;243;1078;-76
2021/12/27 03:42:15;;;;;;;;;;;21.20;31.10;;;;;;487545;243;2186;-76
2021/12/27 03:44:15;;;;;;;;;;;21.60;30.80;;;;;;487335;244;1329;-76
2021/12/27 03:46:16;;;;;;;;;;;21.50;30.60;;;;;;487404;243;1207;-76
2021/12/27 03:48:18;;;;;;;;;;;21.60;30.70;;;;;;487397;243;1053;-76
2021/12/27 03:50:19;;;;;;;;;;;21.70;30.70;;;;;;487431;243;1181;-76
2021/12/27 03:52:20;;;;;;;;;;;21.70;30.50;;;;;;487374;243;1130;-76
2021/12/27 03:54:22;;;;;;;;;;;21.50;30.80;;;;;;487590;243;1309;-76
2021/12/27 03:56:24;;;;;;;;;;;21.70;30.60;;;;;;487375;243;1090;-76
2021/12/27 03:58:28;;;;;;;;;;;21.40;30.70;;;;;;487468;244;1285;-76
2021/12/27 04:00:32;;;;;;;;;;;21.50;30.80;;;;;;487389;244;1543;-76
2021/12/27 04:02:31;;;;;;;;;;;21.40;30.80;;;;;;487028;244;2173;-76
2021/12/27 04:04:33;;;;;;;;;;;21.10;31.20;;;;;;487272;243;1379;-76
2021/12/27 04:06:32;;;;;;;;;;;21.30;31.40;;;;;;487320;243;1364;-76
2021/12/27 04:08:33;;;;;;;;;;;21.30;31.00;;;;;;487531;243;1086;-76
2021/12/27 04:10:35;;;;;;;;;;;21.30;31.20;;;;;;487391;243;1104;-76
2021/12/27 04:12:36;;;;;;;;;;;21.10;31.50;;;;;;487407;240;1364;-76
2021/12/27 04:14:37;;;;;;;;;;;20.90;31.70;;;;;;487426;243;967;-76
2021/12/27 04:16:39;;;;;;;;;;;21.10;31.50;;;;;;487433;243;1032;-76
2021/12/27 04:18:40;;;;;;;;;;;21.10;31.40;;;;;;487357;243;1241;-76
2021/12/27 04:20:41;;;;;;;;;;;21.20;31.50;;;;;;487387;243;1170;-76
2021/12/27 04:22:43;;;;;;;;;;;21.30;31.30;;;;;;487340;243;2123;-76
2021/12/27 04:24:44;;;;;;;;;;;21.30;31.20;;;;;;487449;243;946;-76
2021/12/27 04:26:45;;;;;;;;;;;21.10;31.60;;;;;;487283;243;1077;-76
2021/12/27 04:28:47;;;;;;;;;;;21.10;31.40;;;;;;487361;243;984;-76
2021/12/27 04:30:48;;;;;;;;;;;21.20;31.40;;;;;;487344;243;1187;-76
2021/12/27 04:32:50;;;;;;;;;;;21.20;31.50;;;;;;487328;243;1251;-76
2021/12/27 04:34:52;;;;;;;;;;;21.30;31.30;;;;;;487360;243;1108;-76
2021/12/27 04:36:52;;;;;;;;;;;21.20;31.50;;;;;;487283;244;1438;-76
2021/12/27 04:38:53;;;;;;;;;;;21.10;31.50;;;;;;487433;243;1057;-76
2021/12/27 04:40:55;;;;;;;;;;;21.10;31.60;;;;;;487458;243;1228;-76
2021/12/27 04:42:56;;;;;;;;;;;21.10;31.80;;;;;;487371;243;2123;-76
2021/12/27 04:44:57;;;;;;;;;;;21.00;31.70;;;;;;487400;243;950;-76
2021/12/27 04:46:59;;;;;;;;;;;21.00;31.70;;;;;;487463;243;1219;-76
2021/12/27 04:49:00;;;;;;;;;;;21.20;31.70;;;;;;487467;243;926;-76
2021/12/27 04:51:01;;;;;;;;;;;21.00;31.80;;;;;;487376;240;1327;-76
2021/12/27 04:53:03;;;;;;;;;;;20.80;32.00;;;;;;487344;243;1050;-76
2021/12/27 04:55:04;;;;;;;;;;;21.00;31.80;;;;;;487448;243;927;-76
2021/12/27 04:57:05;;;;;;;;;;;21.00;31.90;;;;;;487454;243;1193;-76
2021/12/27 04:59:07;;;;;;;;;;;21.00;31.80;;;;;;487379;243;1004;-76
2021/12/27 05:01:08;;;;;;;;;;;21.00;31.90;;;;;;487348;243;1197;-76
2021/12/27 05:03:09;;;;;;;;;;;21.00;31.90;;;;;;487422;243;2151;-76
2021/12/27 05:05:11;;;;;;;;;;;20.90;31.80;;;;;;487433;243;938;-76
2021/12/27 05:07:12;;;;;;;;;;;21.10;31.70;;;;;;487345;243;1130;-76
2021/12/27 05:09:14;;;;;;;;;;;20.90;31.90;;;;;;487463;243;930;-76
2021/12/27 05:11:15;;;;;;;;;;;21.10;31.70;;;;;;487347;243;1224;-76
2021/12/27 05:13:17;;;;;;;;;;;21.10;32.00;;;;;;487324;243;1142;-76
2021/12/27 05:15:18;;;;;;;;;;;21.00;32.00;;;;;;487427;243;996;-76
2021/12/27 05:17:20;;;;;;;;;;;21.10;31.80;;;;;;487279;243;1103;-76
2021/12/27 05:19:21;;;;;;;;;;;21.20;31.50;;;;;;487488;243;1100;-76
2021/12/27 05:21:22;;;;;;;;;;;21.10;31.70;;;;;;487259;243;1305;-76
2021/12/27 05:23:24;;;;;;;;;;;21.20;31.50;;;;;;487255;243;2194;-76
2021/12/27 05:25:25;;;;;;;;;;;21.30;31.50;;;;;;487458;243;1059;-76
2021/12/27 05:27:26;;;;;;;;;;;21.30;31.60;;;;;;487301;243;1231;-76
2021/12/27 05:29:28;;;;;;;;;;;21.00;31.60;;;;;;487371;243;1101;-76
2021/12/27 05:31:29;;;;;;;;;;;21.30;31.50;;;;;;487314;243;1194;-76
2021/12/27 05:33:30;;;;;;;;;;;21.10;31.70;;;;;;487332;243;1090;-76
2021/12/27 05:35:32;;;;;;;;;;;21.40;31.40;;;;;;487459;243;1348;-76
2021/12/27 05:37:33;;;;;;;;;;;21.30;31.70;;;;;;487298;243;1161;-76
2021/12/27 05:39:34;;;;;;;;;;;21.40;31.40;;;;;;487415;243;974;-76
2021/12/27 05:41:36;;;;;;;;;;;21.20;31.60;;;;;;487378;240;1160;-76
2021/12/27 05:43:37;;;;;;;;;;;21.30;31.40;;;;;;487408;243;2103;-76
2021/12/27 05:45:38;;;;;;;;;;;21.10;31.60;;;;;;487304;243;973;-76
2021/12/27 05:47:39;;;;;;;;;;;21.20;31.50;;;;;;487442;243;1162;-76
2021/12/27 05:49:41;;;;;;;;;;;21.20;31.80;;;;;;487362;243;943;-76
2021/12/27 05:51:43;;;;;;;;;;;21.40;31.30;;;;;;487130;243;1218;-76
2021/12/27 05:53:44;;;;;;;;;;;21.40;31.30;;;;;;487220;243;1116;-76
2021/12/27 05:55:45;;;;;;;;;;;21.50;31.30;;;;;;487283;243;1210;-76
2021/12/27 05:57:46;;;;;;;;;;;21.40;31.40;;;;;;487425;243;1084;-76
2021/12/27 05:59:48;;;;;;;;;;;21.40;31.40;;;;;;487400;243;967;-76
2021/12/27 06:01:49;;;;;;;;;;;21.10;31.60;;;;;;487370;243;2138;-76
2021/12/27 06:03:50;;;;;;;;;;;21.60;31.20;;;;;;487331;243;1116;-76
2021/12/27 06:05:52;;;;;;;;;;;21.30;31.50;;;;;;487509;243;1182;-76
2021/12/27 06:07:53;;;;;;;;;;;21.30;31.40;;;;;;487307;243;1142;-76
2021/12/27 06:09:54;;;;;;;;;;;21.50;31.10;;;;;;487413;243;1134;-76
2021/12/27 06:11:56;;;;;;;;;;;21.50;31.30;;;;;;487407;243;1529;-76
2021/12/27 06:13:57;;;;;;;;;;;21.70;31.00;;;;;;487349;243;949;-76
2021/12/27 06:15:58;;;;;;;;;;;21.60;31.00;;;;;;487298;243;1103;-76
2021/12/27 06:17:59;;;;;;;;;;;21.50;31.00;;;;;;487405;243;1054;-76
2021/12/27 06:20:01;;;;;;;;;;;21.70;31.00;;;;;;487341;243;953;-76
2021/12/27 06:22:02;;;;;;;;;;;21.70;30.70;;;;;;487302;243;2147;-76
2021/12/27 06:24:03;;;;;;;;;;;21.20;31.20;;;;;;487321;243;1080;-76
2021/12/27 06:26:05;;;;;;;;;;;21.60;30.70;;;;;;487387;243;1299;-76
2021/12/27 06:28:06;;;;;;;;;;;21.40;31.10;;;;;;487332;243;1174;-76
2021/12/27 06:30:07;;;;;;;;;;;21.50;30.70;;;;;;487415;243;948;-76
2021/12/27 06:32:13;;;;;;;;;;;21.40;31.10;;;;;;487147;243;1143;-76
2021/12/27 06:34:11;;;;;;;;;;;21.60;30.70;;;;;;487102;244;1372;-76
2021/12/27 06:36:13;;;;;;;;;;;21.50;31.00;;;;;;487250;243;1262;-76
2021/12/27 06:38:14;;;;;;;;;;;21.50;30.60;;;;;;487309;243;1204;-76
2021/12/27 06:40:15;;;;;;;;;;;22.20;30.10;;;;;;487382;243;968;-76
2021/12/27 06:42:16;;;;;;;;;;;21.60;30.50;;;;;;487302;243;2202;-76
2021/12/27 06:44:18;;;;;;;;;;;21.90;30.20;;;;;;487496;243;1076;-76
2021/12/27 06:46:19;;;;;;;;;;;22.00;30.10;;;;;;487310;243;1226;-76
2021/12/27 06:48:20;;;;;;;;;;;22.10;30.20;;;;;;487475;243;1183;-76
2021/12/27 06:50:23;;;;;;;;;;;22.10;29.80;;;;;;487372;243;977;-76
2021/12/27 06:52:24;;;;;;;;;;;22.00;30.00;;;;;;487146;243;1427;-76
2021/12/27 06:54:25;;;;;;;;;;;22.00;30.00;;;;;;487258;243;1045;-76
2021/12/27 06:56:26;;;;;;;;;;;21.70;30.20;;;;;;487317;243;1198;-76
2021/12/27 06:58:28;;;;;;;;;;;21.90;30.00;;;;;;487331;243;1147;-76
2021/12/27 07:00:29;;;;;;;;;;;21.80;30.40;;;;;;487391;243;1212;-76
2021/12/27 07:02:30;;;;;;;;;;;21.60;30.40;;;;;;487102;243;2135;-76
2021/12/27 07:04:32;;;;;;;;;;;21.60;30.50;;;;;;487281;243;993;-76
2021/12/27 07:06:33;;;;;;;;;;;22.20;30.00;;;;;;487274;243;1154;-76
2021/12/27 07:08:34;;;;;;;;;;;21.80;30.10;;;;;;487287;243;1192;-76
2021/12/27 07:10:35;;;;;;;;;;;21.90;30.00;;;;;;487363;243;1075;-76
2021/12/27 07:12:37;;;;;;;;;;;22.00;30.00;;;;;;487312;243;1082;-76
2021/12/27 07:14:38;;;;;;;;;;;21.80;30.00;;;;;;487236;243;964;-76
2021/12/27 07:16:39;;;;;;;;;;;21.90;30.30;;;;;;487110;243;1173;-76
2021/12/27 07:18:41;;;;;;;;;;;21.90;30.10;;;;;;487254;243;921;-76
2021/12/27 07:20:42;;;;;;;;;;;21.70;30.10;;;;;;487245;243;1107;-76
2021/12/27 07:22:43;;;;;;;;;;;21.80;30.00;;;;;;487125;243;2186;-76
2021/12/27 07:24:45;;;;;;;;;;;21.90;30.00;;;;;;487170;243;1055;-76
2021/12/27 07:26:46;;;;;;;;;;;21.90;30.10;;;;;;487235;243;1290;-76
2021/12/27 07:28:47;;;;;;;;;;;22.00;30.00;;;;;;487290;243;1348;-76
2021/12/27 07:30:49;;;;;;;;;;;21.60;30.20;;;;;;487254;240;1198;-76
2021/12/27 07:32:50;;;;;;;;;;;21.40;30.20;;;;;;487218;243;1218;-76
2021/12/27 07:34:51;;;;;;;;;;;21.80;30.00;;;;;;487218;243;1035;-76
2021/12/27 07:36:53;;;;;;;;;;;21.60;30.30;;;;;;487272;243;1255;-76
2021/12/27 07:38:54;;;;;;;;;;;21.70;30.00;;;;;;487313;243;1167;-76
2021/12/27 07:40:55;;;;;;;;;;;21.80;30.00;;;;;;487249;243;1135;-76
2021/12/27 07:42:57;;;;;;;;;;;21.90;30.00;;;;;;487257;243;2123;-76
2021/12/27 07:44:58;;;;;;;;;;;21.50;30.30;;;;;;487353;243;1132;-76
2021/12/27 07:46:59;;;;;;;;;;;21.40;30.30;;;;;;487293;243;1182;-76
2021/12/27 07:49:00;;;;;;;;;;;21.60;30.50;;;;;;487182;243;1031;-76
2021/12/27 07:51:02;;;;;;;;;;;21.60;30.30;;;;;;487291;243;1233;-76
2021/12/27 07:53:03;;;;;;;;;;;21.50;30.10;;;;;;487426;243;1126;-76
2021/12/27 07:55:04;;;;;;;;;;;21.50;30.30;;;;;;487280;243;969;-76
2021/12/27 07:57:06;;;;;;;;;;;21.40;30.60;;;;;;487155;243;1196;-76
2021/12/27 07:59:07;;;;;;;;;;;21.50;30.30;;;;;;487212;243;1003;-76
2021/12/27 08:01:08;;;;;;;;;;;21.40;30.40;;;;;;487063;243;1128;-76
2021/12/27 08:03:10;;;;;;;;;;;21.40;30.10;;;;;;487089;243;2127;-76
2021/12/27 08:05:11;;;;;;;;;;;21.80;30.10;;;;;;487160;243;1125;-76
2021/12/27 08:07:12;;;;;;;;;;;21.40;30.30;;;;;;487133;243;1211;-76
2021/12/27 08:09:14;;;;;;;;;;;21.40;30.60;;;;;;487174;243;1139;-76
2021/12/27 08:11:15;;;;;;;;;;;21.30;30.40;;;;;;487069;243;1122;-76
2021/12/27 08:13:16;;;;;;;;;;;21.40;30.30;;;;;;487101;243;989;-76
2021/12/27 08:15:18;;;;;;;;;;;21.30;30.50;;;;;;487146;243;1079;-76
2021/12/27 08:17:19;;;;;;;;;;;21.40;30.70;;;;;;487045;243;1125;-76
2021/12/27 08:19:20;;;;;;;;;;;21.30;30.70;;;;;;487128;243;974;-76
2021/12/27 08:21:22;;;;;;;;;;;21.00;30.90;;;;;;487120;243;1201;-76
2021/12/27 08:23:23;;;;;;;;;;;21.00;31.20;;;;;;487048;243;2131;-76
2021/12/27 08:25:24;;;;;;;;;;;21.10;31.10;;;;;;487084;243;966;-76
2021/12/27 08:27:25;;;;;;;;;;;21.20;30.90;;;;;;487075;243;1148;-76
2021/12/27 08:29:27;;;;;;;;;;;21.30;30.90;;;;;;487150;243;1023;-76
2021/12/27 08:31:28;;;;;;;;;;;21.10;30.90;;;;;;487140;243;1236;-76
2021/12/27 08:33:29;;;;;;;;;;;21.30;30.70;;;;;;487197;243;1101;-76
2021/12/27 08:35:31;;;;;;;;;;;21.20;30.80;;;;;;487208;243;975;-76
2021/12/27 08:37:32;;;;;;;;;;;21.00;31.00;;;;;;487117;243;1203;-77
2021/12/27 08:39:34;;;;;;;;;;;21.20;30.90;;;;;;487207;243;1189;-76
2021/12/27 08:41:35;;;;;;;;;;;21.20;31.30;;;;;;487169;243;1366;-76
2021/12/27 08:43:37;;;;;;;;;;;21.00;31.00;;;;;;487054;243;2187;-76
2021/12/27 08:45:38;;;;;;;;;;;21.40;30.90;;;;;;487123;243;989;-76
2021/12/27 08:47:39;;;;;;;;;;;21.10;31.20;;;;;;487146;243;1117;-76
2021/12/27 08:49:41;;;;;;;;;;;21.30;30.80;;;;;;487186;243;940;-76
2021/12/27 08:51:42;;;;;;;;;;;21.10;31.10;;;;;;487136;240;1278;-76
2021/12/27 08:53:43;;;;;;;;;;;21.40;30.80;;;;;;487204;243;1117;-76
2021/12/27 08:55:45;;;;;;;;;;;21.40;31.10;;;;;;487180;243;1107;-76
2021/12/27 08:57:46;;;;;;;;;;;21.50;30.50;;;;;;487227;243;1208;-76
2021/12/27 08:59:47;;;;;;;;;;;21.40;30.70;;;;;;487259;243;1232;-77
2021/12/27 09:01:49;;;;;;;;;;;21.50;30.70;;;;;;487187;243;1131;-76
2021/12/27 09:03:50;;;;;;;;;;;21.40;30.50;;;;;;487126;243;2194;-76
2021/12/27 09:05:51;;;;;;;;;;;21.40;30.90;;;;;;487139;243;1216;-76
2021/12/27 09:07:53;;;;;;;;;;;21.50;30.60;;;;;;487236;243;1074;-76
2021/12/27 09:09:54;;;;;;;;;;;21.50;30.80;;;;;;487163;243;1136;-76
2021/12/27 09:11:55;;;;;;;;;;;21.30;31.00;;;;;;487241;243;1333;-76
2021/12/27 09:13:57;;;;;;;;;;;21.60;30.50;;;;;;487197;243;973;-76
2021/12/27 09:16:00;;;;;;;;;;;21.50;30.70;;;;;;487202;243;1026;-76
2021/12/27 09:18:00;;;;;;;;;;;21.30;31.10;;;;;;487178;244;1295;-76
2021/12/27 09:20:01;;;;;;;;;;;21.40;30.80;;;;;;487132;243;970;-76
2021/12/27 09:22:02;;;;;;;;;;;21.40;30.90;;;;;;487064;243;1264;-76
2021/12/27 09:24:04;;;;;;;;;;;21.30;31.00;;;;;;487146;243;2134;-76
2021/12/27 09:26:05;;;;;;;;;;;21.50;31.00;;;;;;487046;243;1106;-76
2021/12/27 09:28:06;;;;;;;;;;;21.70;30.70;;;;;;487093;243;1184;-76
2021/12/27 09:30:08;;;;;;;;;;;21.60;30.80;;;;;;487148;243;1053;-76
2021/12/27 09:32:09;;;;;;;;;;;21.50;31.10;;;;;;486970;243;1101;-76
2021/12/27 09:34:10;;;;;;;;;;;21.30;31.20;;;;;;486993;243;1180;-76
2021/12/27 09:36:12;;;;;;;;;;;21.60;31.00;;;;;;487111;243;1362;-76
2021/12/27 09:38:13;;;;;;;;;;;21.90;30.70;;;;;;487155;243;1010;-76
2021/12/27 09:40:15;;;;;;;;;;;22.00;30.80;;;;;;487150;243;1209;-76
2021/12/27 09:42:16;;;;;;;;;;;21.50;31.10;;;;;;487102;244;1348;-76
2021/12/27 09:44:17;;;;;;;;;;;21.60;30.90;;;;;;487142;243;2185;-76
2021/12/27 09:46:18;;;;;;;;;;;21.60;31.10;;;;;;487051;243;1238;-76
2021/12/27 09:48:19;;;;;;;;;;;21.60;31.00;;;;;;487065;243;1051;-76
2021/12/27 09:50:21;;;;;;;;;;;21.70;30.90;;;;;;487029;243;950;-76
2021/12/27 09:52:22;;;;;;;;;;;21.90;30.80;;;;;;487163;243;1074;-76
2021/12/27 09:54:23;;;;;;;;;;;21.90;30.80;;;;;;487184;243;1146;-76
2021/12/27 09:56:25;;;;;;;;;;;21.50;31.50;;;;;;487100;243;987;-76
2021/12/27 09:58:26;;;;;;;;;;;21.60;31.20;;;;;;487025;243;1110;-76
2021/12/27 10:00:27;;;;;;;;;;;21.50;31.70;;;;;;487055;243;980;-76
2021/12/27 10:02:29;;;;;;;;;;;22.00;31.00;;;;;;487121;243;1048;-76
2021/12/27 10:04:30;;;;;;;;;;;21.60;31.40;;;;;;487214;243;2186;-76
2021/12/27 10:06:31;;;;;;;;;;;21.50;31.70;;;;;;487099;243;983;-76
2021/12/27 10:08:33;;;;;;;;;;;21.80;31.20;;;;;;487085;243;1102;-76
2021/12/27 10:10:34;;;;;;;;;;;22.00;31.30;;;;;;487101;243;1259;-76
2021/12/27 10:12:35;;;;;;;;;;;21.60;31.60;;;;;;487028;243;1019;-76
2021/12/27 10:14:37;;;;;;;;;;;21.90;31.30;;;;;;487096;243;1089;-76
2021/12/27 10:16:38;;;;;;;;;;;21.50;31.80;;;;;;487113;243;1054;-76
2021/12/27 10:18:39;;;;;;;;;;;21.80;31.60;;;;;;487219;243;1121;-76
2021/12/27 10:20:41;;;;;;;;;;;21.60;31.90;;;;;;487048;240;1241;-76
2021/12/27 10:22:42;;;;;;;;;;;21.80;31.70;;;;;;487184;243;1147;-76
2021/12/27 10:24:45;;;;;;;;;;;21.70;31.70;;;;;;487075;243;2114;-76
2021/12/27 10:26:45;;;;;;;;;;;22.10;31.40;;;;;;486995;243;1344;-76
2021/12/27 10:28:46;;;;;;;;;;;21.90;31.60;;;;;;487042;243;1204;-76
2021/12/27 10:30:47;;;;;;;;;;;22.10;31.40;;;;;;487021;243;1165;-76
2021/12/27 10:32:49;;;;;;;;;;;22.00;31.80;;;;;;486958;243;1126;-76
2021/12/27 10:34:50;;;;;;;;;;;21.60;32.00;;;;;;487121;243;997;-76
2021/12/27 10:36:51;;;;;;;;;;;21.50;32.40;;;;;;487025;243;1228;-76
2021/12/27 10:38:52;;;;;;;;;;;21.60;32.20;;;;;;487107;243;1104;-76
2021/12/27 10:40:54;;;;;;;;;;;22.00;32.00;;;;;;487083;243;1289;-76
2021/12/27 10:42:55;;;;;;;;;;;21.70;32.10;;;;;;487024;243;1202;-76
2021/12/27 10:44:57;;;;;;;;;;;21.60;32.40;;;;;;487059;243;2186;-76
2021/12/27 10:46:58;;;;;;;;;;;21.60;32.20;;;;;;487097;243;1409;-76
2021/12/27 10:48:59;;;;;;;;;;;21.20;33.00;;;;;;487139;243;1029;-76
2021/12/27 10:51:00;;;;;;;;;;;21.10;33.30;;;;;;487048;243;1222;-76
2021/12/27 10:53:02;;;;;;;;;;;21.10;33.40;;;;;;487278;244;1082;-76
2021/12/27 10:55:03;;;;;;;;;;;21.20;33.20;;;;;;487240;245;967;-76
2021/12/27 10:57:04;;;;;;;;;;;21.00;33.40;;;;;;487268;244;1245;-76
2021/12/27 10:59:07;;;;;;;;;;;21.20;33.30;;;;;;487149;243;988;-76
2021/12/27 11:01:08;;;;;;;;;;;21.10;33.20;;;;;;486966;244;1491;-75
2021/12/27 11:03:09;;;;;;;;;;;21.20;33.40;;;;;;487139;243;1147;-76
2021/12/27 11:05:10;;;;;;;;;;;21.30;33.20;;;;;;487261;243;2186;-76
2021/12/27 11:07:12;;;;;;;;;;;21.20;33.10;;;;;;486985;243;1099;-76
2021/12/27 11:09:14;;;;;;;;;;;21.30;33.30;;;;;;486974;243;1081;-76
2021/12/27 11:11:14;;;;;;;;;;;21.10;33.50;;;;;;487006;244;1430;-76
2021/12/27 11:13:16;;;;;;;;;;;20.90;33.70;;;;;;487104;243;930;-76
2021/12/27 11:15:17;;;;;;;;;;;20.90;33.80;;;;;;487111;243;970;-76
2021/12/27 11:17:18;;;;;;;;;;;21.20;33.70;;;;;;487062;243;1052;-76
2021/12/27 11:19:20;;;;;;;;;;;21.10;33.60;;;;;;487169;243;1007;-76
2021/12/27 11:21:21;;;;;;;;;;;21.20;33.50;;;;;;487138;240;1231;-76
2021/12/27 11:23:22;;;;;;;;;;;21.20;33.50;;;;;;487397;243;1156;-76
2021/12/27 11:25:24;;;;;;;;;;;21.10;33.60;;;;;;487209;243;2127;-76
2021/12/27 11:27:25;;;;;;;;;;;21.10;33.70;;;;;;487171;243;1271;-76
2021/12/27 11:29:26;;;;;;;;;;;21.20;33.60;;;;;;487393;243;1075;-76
2021/12/27 11:31:28;;;;;;;;;;;21.30;33.40;;;;;;487099;243;1244;-76
2021/12/27 11:33:30;;;;;;;;;;;21.20;33.70;;;;;;487256;243;992;-76
2021/12/27 11:35:30;;;;;;;;;;;21.20;33.70;;;;;;487037;244;1586;-76
2021/12/27 11:37:32;;;;;;;;;;;21.30;33.70;;;;;;487023;243;1145;-76
2021/12/27 11:39:33;;;;;;;;;;;21.40;33.50;;;;;;487133;243;986;-76
2021/12/27 11:41:34;;;;;;;;;;;21.40;33.70;;;;;;487008;241;1260;-76
2021/12/27 11:43:36;;;;;;;;;;;21.50;33.60;;;;;;487167;243;1120;-76
2021/12/27 11:45:37;;;;;;;;;;;21.50;33.60;;;;;;487155;243;2119;-76
2021/12/27 11:47:39;;;;;;;;;;;21.40;33.70;;;;;;487149;243;1091;-76
2021/12/27 11:49:39;;;;;;;;;;;21.40;33.60;;;;;;486985;243;1490;-76
2021/12/27 11:51:42;;;;;;;;;;;21.60;33.50;;;;;;486952;243;993;-76
2021/12/27 11:53:42;;;;;;;;;;;21.60;33.50;;;;;;487249;243;1317;-76
2021/12/27 11:55:44;;;;;;;;;;;21.50;33.50;;;;;;487019;243;986;-76
2021/12/27 11:57:45;;;;;;;;;;;21.60;33.40;;;;;;487197;243;1178;-76